Hovedside
METAR-TAF:

METAR-TAF

Lufthavner :

Pulkovo internasjonale lufthavn

St. Petersburg, Russland

breddegrad: 59-58N, lengdegrad: 030-18E, høyde over havet: 4 m

Gjeldene værobservasjon

Denne rapporten ble laget for 13 minutter siden, klokken 19:00 UTC
Vind 6 kt fra Vest
Temperatur 14°C
Luftfuktighet 63%
Trykk 1025 hPa
Sikt 10 km eller mer
ingen skyer under 1500 m og ingen bygeskyer

METAR: ULLI 201900Z 28003MPS CAVOK 14/07 Q1025 R28L/090060 NOSIG

Tid: 22:13 (19:13 UTC)

Varsel

Denne rapporten ble laget for 2 timer og 14 minutter siden, klokken 16:59 UTC
Varsel gyldig fra 20. klokken 18 UTC til 21. klokken 18 UTC
Vind 6 kt fra Vest
Sikt 10 km eller mer
Spredte skyer i en høyde av 2500 ft
Blir
fra 20. klokken 22 UTC til 20. klokken 24 UTC
Vind 6 kt fra Vest-sørvest
Midlertidig
fra 21. klokken 01 UTC til 21. klokken 05 UTC
Sikt: 3100 m
dis

TAF: ULLI 201659Z 2018/2118 28003MPS 9999 SCT025 BECMG 2022/2024 24003MPS TEMPO 2101/2105 3100 BR

Værobservasjoner og værvarsel for over 4000 flyplasser (METAR- og TAF-rapporter).

Tilgjengelige stasjoner er representert av de røde og gule prikkene på kartet.

Hold musepekeren over prikken for å se navnet på stasjonen.

Klikk så for å se værobservasjoner og -varsler.

For å forandre kartet kan du klikke på den grønne knappen med svart kryss for å zoome inn, på den grønne knappen med strek for å zoome ut, eller på de grønne pilene for å se tilstøtende kart.


METAR-TAF: